Time;durP1;ratioP1;P1;durP2;ratioP2;P2;SDS_P1;SDS_P2;PMS_P1;PMS_P2;Temp;Humidity;BMP_temperature;BMP_pressure;BME280_temperature;BME280_humidity;BME280_pressure;Samples;Min_cycle;Max_cycle;Signal;HPM_P1;HPM_P2
2021/04/23 00:00:27;;;;;;;;;;;7.30;99.90;;;;;;4976517;28;19905;-79
2021/04/23 00:02:53;;;;;;;;;;;7.30;99.90;;;;;;4975139;28;19906;-79
2021/04/23 00:05:19;;;;;;;;;;;7.30;99.90;;;;;;4974580;28;20354;-79
2021/04/23 00:07:45;;;;;;;;;;;7.30;99.90;;;;;;4976200;28;19917;-79
2021/04/23 00:10:12;;;;;;;;;;;7.20;99.90;;;;;;4975612;28;19913;-79
2021/04/23 00:12:37;;;;;;;;;;;7.20;99.90;;;;;;4974977;28;19996;-80
2021/04/23 00:15:04;;;;;;;;;;;7.30;99.90;;;;;;4974304;28;19992;-78
2021/04/23 00:17:29;;;;;;;;;;;7.20;99.90;;;;;;4975996;28;20374;-79
2021/04/23 00:19:55;;;;;;;;;;;7.10;99.90;;;;;;4975845;28;19945;-78
2021/04/23 00:22:20;;;;;;;;;;;7.10;99.90;;;;;;4974866;28;19972;-79
2021/04/23 00:24:46;;;;;;;;;;;7.10;99.90;;;;;;4974006;28;19917;-79
2021/04/23 00:27:11;;;;;;;;;;;7.20;99.90;;;;;;4974654;28;19905;-79
2021/04/23 00:29:37;;;;;;;;;;;7.10;99.90;;;;;;4975665;28;19906;-79
2021/04/23 00:34:47;;;;;;;;;;;7.10;99.90;;;;;;4975426;28;19928;-79
2021/04/23 00:37:13;;;;;;;;;;;7.00;99.90;;;;;;4974489;28;20421;-79
2021/04/23 00:39:38;;;;;;;;;;;6.90;99.90;;;;;;4974307;28;19913;-79
2021/04/23 00:42:05;;;;;;;;;;;6.90;99.90;;;;;;4974000;28;20377;-79
2021/04/23 00:44:30;;;;;;;;;;;6.70;99.90;;;;;;4973567;28;19910;-79
2021/04/23 00:46:56;;;;;;;;;;;6.70;99.90;;;;;;4974197;28;19906;-79
2021/04/23 00:49:21;;;;;;;;;;;6.70;99.90;;;;;;4974032;28;19906;-79
2021/04/23 00:51:50;;;;;;;;;;;6.60;99.90;;;;;;4974088;28;20439;-79
2021/04/23 00:54:16;;;;;;;;;;;6.50;99.90;;;;;;4973407;28;19913;-79
2021/04/23 00:56:41;;;;;;;;;;;6.50;99.90;;;;;;4973942;28;20428;-79
2021/04/23 00:59:08;;;;;;;;;;;6.50;99.90;;;;;;4974027;28;19979;-78
2021/04/23 01:01:46;;;;;;;;;;;6.40;99.90;;;;;;4975123;28;19906;-78
2021/04/23 01:04:16;;;;;;;;;;;6.30;99.90;;;;;;4974842;28;19910;-79
2021/04/23 01:06:42;;;;;;;;;;;6.30;99.90;;;;;;4975084;28;20325;-79
2021/04/23 01:09:09;;;;;;;;;;;6.30;99.90;;;;;;4973675;28;20165;-79
2021/04/23 01:11:35;;;;;;;;;;;6.40;99.90;;;;;;4975330;28;19961;-79
2021/04/23 01:14:01;;;;;;;;;;;6.40;99.90;;;;;;4973207;28;19906;-79
2021/04/23 01:16:26;;;;;;;;;;;6.30;99.90;;;;;;4973733;28;19914;-79
2021/04/23 01:18:53;;;;;;;;;;;6.20;99.90;;;;;;4973494;28;20428;-79
2021/04/23 01:21:20;;;;;;;;;;;6.20;99.90;;;;;;4972619;28;19906;-79
2021/04/23 01:23:47;;;;;;;;;;;6.10;99.90;;;;;;4974464;28;20289;-78
2021/04/23 01:26:13;;;;;;;;;;;5.90;99.90;;;;;;4974581;28;19937;-78
2021/04/23 01:28:39;;;;;;;;;;;5.90;99.90;;;;;;4973239;28;19906;-78
2021/04/23 01:31:05;;;;;;;;;;;5.80;99.90;;;;;;4973403;28;19909;-78
2021/04/23 01:33:32;;;;;;;;;;;5.60;99.90;;;;;;4973449;28;19906;-78
2021/04/23 01:35:57;;;;;;;;;;;5.50;99.90;;;;;;4972942;28;19913;-78
2021/04/23 01:38:23;;;;;;;;;;;5.50;99.90;;;;;;4973098;28;19906;-78
2021/04/23 01:40:48;;;;;;;;;;;5.30;99.90;;;;;;4973119;28;20384;-78
2021/04/23 01:43:15;;;;;;;;;;;5.30;99.90;;;;;;4974340;28;20126;-78
2021/04/23 01:45:41;;;;;;;;;;;5.30;99.90;;;;;;4972857;28;19912;-79
2021/04/23 01:48:06;;;;;;;;;;;5.20;99.90;;;;;;4974221;28;20000;-78
2021/04/23 01:50:32;;;;;;;;;;;5.20;99.90;;;;;;4972841;28;19933;-79
2021/04/23 01:52:58;;;;;;;;;;;5.10;99.90;;;;;;4972769;28;19998;-79
2021/04/23 01:55:24;;;;;;;;;;;5.10;99.90;;;;;;4973680;28;19913;-79
2021/04/23 01:57:50;;;;;;;;;;;5.10;99.90;;;;;;4972856;28;19906;-78
2021/04/23 02:00:27;;;;;;;;;;;5.00;99.90;;;;;;4972860;28;19906;-79
2021/04/23 02:02:54;;;;;;;;;;;5.00;99.90;;;;;;4972628;28;19914;-78
2021/04/23 02:05:20;;;;;;;;;;;4.90;99.90;;;;;;4972383;28;19972;-78
2021/04/23 02:07:45;;;;;;;;;;;4.90;99.90;;;;;;4974129;28;20002;-79
2021/04/23 02:10:12;;;;;;;;;;;4.90;99.90;;;;;;4972820;28;20004;-79
2021/04/23 02:12:38;;;;;;;;;;;4.80;99.90;;;;;;4974153;28;19913;-79
2021/04/23 02:15:05;;;;;;;;;;;4.80;99.90;;;;;;4972286;28;19906;-79
2021/04/23 02:17:31;;;;;;;;;;;4.80;99.90;;;;;;4974077;28;19910;-79
2021/04/23 02:19:56;;;;;;;;;;;4.80;99.90;;;;;;4972683;28;19996;-79
2021/04/23 02:22:21;;;;;;;;;;;4.70;99.90;;;;;;4973128;28;19913;-79
2021/04/23 02:24:47;;;;;;;;;;;4.70;99.90;;;;;;4972373;28;19910;-79
2021/04/23 02:27:12;;;;;;;;;;;4.60;99.90;;;;;;4972696;28;19964;-79
2021/04/23 02:29:38;;;;;;;;;;;4.60;99.90;;;;;;4973009;28;19906;-79
2021/04/23 02:32:04;;;;;;;;;;;4.50;99.90;;;;;;4972438;28;19958;-79
2021/04/23 02:34:29;;;;;;;;;;;4.60;99.90;;;;;;4972075;28;20285;-78
2021/04/23 02:36:54;;;;;;;;;;;4.60;99.90;;;;;;4972708;28;20278;-79
2021/04/23 02:39:21;;;;;;;;;;;4.60;99.90;;;;;;4973065;28;19910;-79
2021/04/23 02:41:49;;;;;;;;;;;4.50;99.90;;;;;;4975915;28;19906;-80
2021/04/23 02:44:15;;;;;;;;;;;4.50;99.90;;;;;;4987822;28;19920;-79
2021/04/23 02:46:41;;;;;;;;;;;4.50;99.90;;;;;;4990740;28;19906;-79
2021/04/23 02:49:07;;;;;;;;;;;4.40;99.90;;;;;;4992040;28;19906;-79
2021/04/23 02:51:34;;;;;;;;;;;4.30;99.90;;;;;;4976977;28;19906;-79
2021/04/23 02:54:00;;;;;;;;;;;4.40;99.90;;;;;;4972233;28;20278;-79
2021/04/23 02:56:26;;;;;;;;;;;4.40;99.90;;;;;;4972538;28;19913;-78
2021/04/23 02:58:52;;;;;;;;;;;4.50;99.90;;;;;;4972653;28;20005;-78
2021/04/23 03:01:19;;;;;;;;;;;4.40;99.90;;;;;;4973544;28;19906;-78
2021/04/23 03:03:44;;;;;;;;;;;4.50;99.90;;;;;;4972321;28;19942;-78
2021/04/23 03:06:10;;;;;;;;;;;4.50;99.90;;;;;;4972089;28;19906;-78
2021/04/23 03:08:36;;;;;;;;;;;4.50;99.90;;;;;;4972374;28;20317;-79
2021/04/23 03:11:08;;;;;;;;;;;4.50;99.90;;;;;;4973660;28;19928;-79
2021/04/23 03:13:35;;;;;;;;;;;4.40;99.90;;;;;;4973469;28;19942;-79
2021/04/23 03:16:00;;;;;;;;;;;4.30;99.90;;;;;;4971891;28;19906;-78
2021/04/23 03:18:29;;;;;;;;;;;4.30;99.90;;;;;;4972081;28;19912;-78
2021/04/23 03:20:56;;;;;;;;;;;4.30;99.90;;;;;;4972197;28;19906;-79
2021/04/23 03:23:23;;;;;;;;;;;4.20;99.90;;;;;;4973461;28;19934;-79
2021/04/23 03:25:49;;;;;;;;;;;4.10;99.90;;;;;;4973101;28;20012;-79
2021/04/23 03:28:15;;;;;;;;;;;4.10;99.90;;;;;;4972139;28;19906;-79
2021/04/23 03:30:41;;;;;;;;;;;4.10;99.90;;;;;;4973208;28;19913;-81
2021/04/23 03:33:08;;;;;;;;;;;4.20;99.90;;;;;;4972226;28;19906;-80
2021/04/23 03:35:33;;;;;;;;;;;4.30;99.90;;;;;;4971250;28;20277;-79
2021/04/23 03:37:59;;;;;;;;;;;4.20;99.90;;;;;;4972150;28;20004;-80
2021/04/23 03:40:26;;;;;;;;;;;4.20;99.90;;;;;;4971916;28;20293;-79
2021/04/23 03:42:52;;;;;;;;;;;4.20;99.90;;;;;;4971897;28;19993;-79
2021/04/23 03:45:19;;;;;;;;;;;4.20;99.90;;;;;;4974252;28;20465;-79
2021/04/23 03:47:44;;;;;;;;;;;4.10;99.90;;;;;;4975258;28;19921;-79
2021/04/23 03:50:11;;;;;;;;;;;4.00;99.90;;;;;;4975267;28;19906;-79
2021/04/23 03:52:36;;;;;;;;;;;4.00;99.90;;;;;;4976305;28;19914;-79
2021/04/23 03:55:05;;;;;;;;;;;4.00;99.90;;;;;;4974672;28;19912;-79
2021/04/23 03:57:30;;;;;;;;;;;4.00;99.90;;;;;;4976332;28;19906;-79
2021/04/23 03:59:56;;;;;;;;;;;3.90;99.90;;;;;;4975066;28;20005;-79
2021/04/23 04:02:21;;;;;;;;;;;3.90;99.90;;;;;;4975110;28;20362;-79
2021/04/23 04:04:47;;;;;;;;;;;3.80;99.90;;;;;;4974440;28;20012;-79
2021/04/23 04:07:12;;;;;;;;;;;3.80;99.90;;;;;;4976139;28;19910;-78
2021/04/23 04:09:38;;;;;;;;;;;3.90;99.90;;;;;;4976698;28;20353;-78
2021/04/23 04:12:03;;;;;;;;;;;3.90;99.90;;;;;;4976727;28;20337;-78
2021/04/23 04:14:29;;;;;;;;;;;3.80;99.90;;;;;;4975449;28;19906;-79
2021/04/23 04:16:54;;;;;;;;;;;3.80;99.90;;;;;;4975813;28;20318;-78
2021/04/23 04:19:20;;;;;;;;;;;3.90;99.90;;;;;;4975730;28;19952;-78
2021/04/23 04:21:45;;;;;;;;;;;3.90;99.90;;;;;;4976736;28;19906;-78
2021/04/23 04:24:11;;;;;;;;;;;3.80;99.90;;;;;;4975130;28;20447;-78
2021/04/23 04:26:36;;;;;;;;;;;3.80;99.90;;;;;;4975486;28;19906;-78
2021/04/23 04:29:02;;;;;;;;;;;3.80;99.90;;;;;;4975399;28;19906;-78
2021/04/23 04:31:27;;;;;;;;;;;3.80;99.90;;;;;;4976611;28;20350;-78
2021/04/23 04:33:53;;;;;;;;;;;3.80;99.90;;;;;;4974745;28;19906;-78
2021/04/23 04:36:19;;;;;;;;;;;3.80;99.90;;;;;;4976517;28;19910;-78
2021/04/23 04:38:45;;;;;;;;;;;3.80;99.90;;;;;;4975559;28;19933;-78
2021/04/23 04:41:10;;;;;;;;;;;3.90;99.90;;;;;;4976781;28;19906;-78
2021/04/23 04:43:36;;;;;;;;;;;3.90;99.90;;;;;;4975282;28;19962;-79
2021/04/23 04:46:01;;;;;;;;;;;4.00;99.90;;;;;;4975077;28;19942;-78
2021/04/23 04:48:27;;;;;;;;;;;4.10;99.90;;;;;;4973841;28;19910;-78
2021/04/23 04:50:57;;;;;;;;;;;4.20;99.90;;;;;;4973052;28;20347;-78
2021/04/23 04:53:23;;;;;;;;;;;4.40;99.90;;;;;;4974663;28;20301;-78
2021/04/23 04:55:56;;;;;;;;;;;4.60;99.90;;;;;;4974034;28;19988;-78
2021/04/23 04:58:25;;;;;;;;;;;4.80;99.90;;;;;;4974442;28;19929;-78
2021/04/23 05:00:51;;;;;;;;;;;5.10;99.90;;;;;;4975509;28;19906;-78
2021/04/23 05:03:16;;;;;;;;;;;5.20;99.90;;;;;;4973942;28;21873;-78
2021/04/23 05:05:43;;;;;;;;;;;5.60;99.90;;;;;;4974672;28;19929;-79
2021/04/23 05:08:09;;;;;;;;;;;5.60;99.90;;;;;;4973926;28;19913;-78
2021/04/23 05:10:34;;;;;;;;;;;5.80;99.90;;;;;;4973679;28;19910;-78
2021/04/23 05:13:00;;;;;;;;;;;5.80;99.90;;;;;;4973494;28;20281;-78
2021/04/23 05:15:26;;;;;;;;;;;6.10;99.90;;;;;;4972890;28;19906;-77
2021/04/23 05:17:51;;;;;;;;;;;6.30;99.90;;;;;;4973468;28;19997;-78
2021/04/23 05:20:19;;;;;;;;;;;6.40;99.90;;;;;;4973027;28;19932;-78
2021/04/23 05:22:44;;;;;;;;;;;7.00;99.90;;;;;;4974310;28;19953;-78
2021/04/23 05:25:12;;;;;;;;;;;7.30;99.90;;;;;;4972745;28;20005;-78
2021/04/23 05:27:37;;;;;;;;;;;8.10;99.90;;;;;;4972977;28;19997;-78
2021/04/23 05:30:06;;;;;;;;;;;8.60;99.90;;;;;;4973824;28;19958;-78
2021/04/23 05:32:32;;;;;;;;;;;8.90;99.90;;;;;;4972559;28;19936;-78
2021/04/23 05:34:58;;;;;;;5.95;3.80;;;9.60;99.90;;;;;;4973008;28;20357;-78
2021/04/23 05:37:23;;;;;;;14.05;3.97;;;10.30;99.90;;;;;;4972015;28;20514;-78
2021/04/23 05:39:49;;;;;;;8.75;3.40;;;11.00;99.90;;;;;;4971986;28;20026;-78
2021/04/23 05:42:15;;;;;;;9.75;4.70;;;11.20;99.90;;;;;;4972834;28;20098;-78
2021/04/23 05:44:42;;;;;;;5.10;3.30;;;11.60;99.90;;;;;;4972373;28;20483;-78
2021/04/23 05:47:10;;;;;;;10.68;4.30;;;12.00;99.90;;;;;;4971662;28;20491;-77
2021/04/23 05:49:35;;;;;;;5.35;3.50;;;12.60;99.90;;;;;;4974508;28;20030;-78
2021/04/23 05:52:02;;;;;;;7.85;4.35;;;11.70;99.90;;;;;;4973683;28;20031;-79
2021/04/23 05:54:28;;;;;;;14.70;4.10;;;10.40;99.90;;;;;;4974140;28;20039;-80
2021/04/23 05:56:54;;;;;;;7.47;4.07;;;9.90;99.90;;;;;;4973664;28;20057;-77
2021/04/23 05:59:21;;;;;;;6.97;3.73;;;10.00;99.90;;;;;;4971878;28;20125;-78
2021/04/23 06:01:47;;;;;;;14.17;5.03;;;10.90;99.90;;;;;;4970589;28;20027;-78
2021/04/23 06:04:13;;;;;;;10.90;2.88;;;12.10;99.90;;;;;;4985361;28;20509;-78
2021/04/23 06:06:38;;;;;;;7.45;3.53;;;13.20;99.90;;;;;;5005631;28;20098;-78
2021/04/23 06:09:05;;;;;;;7.15;3.38;;;14.60;95.30;;;;;;4990954;28;20043;-78
2021/04/23 06:11:31;;;;;;;14.00;4.32;;;15.30;92.70;;;;;;4989443;28;20034;-78
2021/04/23 06:13:57;;;;;;;7.38;2.83;;;16.20;86.80;;;;;;5006285;28;20402;-78
2021/04/23 06:16:22;;;;;;;;;;;17.40;77.90;;;;;;4990461;28;20022;-79
2021/04/23 06:18:48;;;;;;;3.72;3.05;;;18.20;70.60;;;;;;4984663;28;19922;-78
2021/04/23 06:21:14;;;;;;;4.45;2.97;;;16.70;72.00;;;;;;4985505;28;20028;-78
2021/04/23 06:23:39;;;;;;;8.18;3.67;;;16.60;74.10;;;;;;4989686;28;20390;-78
2021/04/23 06:26:06;;;;;;;4.88;3.25;;;17.20;73.60;;;;;;4989305;28;20034;-78
2021/04/23 06:28:32;;;;;;;3.42;3.08;;;17.40;70.50;;;;;;4992522;28;20076;-78
2021/04/23 06:30:58;;;;;;;5.60;3.23;;;18.20;67.40;;;;;;4990409;28;20023;-78
2021/04/23 06:33:30;;;;;;;9.60;3.50;;;16.90;68.80;;;;;;4989506;28;20061;-78
2021/04/23 06:35:56;;;;;;;5.47;3.00;;;17.60;69.50;;;;;;4982349;28;20109;-78
2021/04/23 06:38:24;;;;;;;7.50;3.40;;;17.90;64.70;;;;;;5003100;28;20481;-78
2021/04/23 06:40:50;;;;;;;5.55;4.05;;;16.80;67.60;;;;;;5010397;28;20105;-78
2021/04/23 06:43:15;;;;;;;;;;;17.30;68.30;;;;;;5026913;28;20052;-78
2021/04/23 06:45:41;;;;;;;4.85;3.50;;;16.50;69.20;;;;;;5009717;28;20145;-78
2021/04/23 06:48:11;;;;;;;6.13;2.95;;;16.80;68.80;;;;;;5009050;28;20315;-78
2021/04/23 06:50:36;;;;;;;5.80;2.95;;;18.00;65.60;;;;;;5010860;28;20049;-77
2021/04/23 06:53:04;;;;;;;5.83;2.83;;;18.40;64.70;;;;;;5011204;28;20473;-77
2021/04/23 06:55:30;;;;;;;4.60;2.67;;;20.20;61.80;;;;;;5026803;28;20026;-77
2021/04/23 06:57:56;;;;;;;2.40;2.00;;;22.30;56.70;;;;;;5012283;28;20033;-77
2021/04/23 07:00:34;;;;;;;15.15;3.83;;;22.00;53.90;;;;;;5027632;28;20029;-77
2021/04/23 07:03:01;;;;;;;4.60;3.42;;;21.60;52.00;;;;;;5026956;28;20030;-77
2021/04/23 07:05:27;;;;;;;5.57;2.70;;;22.50;51.10;;;;;;5010383;28;20026;-77
2021/04/23 07:07:53;;;;;;;5.40;3.22;;;21.40;51.10;;;;;;5013368;28;20026;-77
2021/04/23 07:10:21;;;;;;;4.75;2.67;;;21.00;50.70;;;;;;5026561;28;20500;-77
2021/04/23 07:12:48;;;;;;;4.03;3.15;;;19.70;54.30;;;;;;4989054;28;20031;-76
2021/04/23 07:15:16;;;;;;;5.93;2.88;;;20.40;51.80;;;;;;4987638;28;20034;-76
2021/04/23 07:17:43;;;;;;;5.10;2.55;;;20.60;53.00;;;;;;4986969;28;20054;-77
2021/04/23 07:20:09;;;;;;;3.10;2.20;;;20.70;52.70;;;;;;4990323;28;20034;-77
2021/04/23 07:22:34;;;;;;;6.07;2.33;;;21.40;51.00;;;;;;4976981;28;20094;-77
2021/04/23 07:25:00;;;;;;;8.35;3.15;;;23.30;48.00;;;;;;4991343;28;20381;-77
2021/04/23 07:27:26;;;;;;;5.15;2.50;;;23.90;49.70;;;;;;4985812;28;20100;-77
2021/04/23 07:29:51;;;;;;;5.83;3.20;;;23.90;47.30;;;;;;4992775;28;20085;-77
2021/04/23 07:32:17;;;;;;;5.63;2.60;;;22.70;47.30;;;;;;4991441;28;20617;-77
2021/04/23 07:34:43;;;;;;;4.53;2.45;;;23.20;47.60;;;;;;4975215;28;20035;-77
2021/04/23 07:37:11;;;;;;;4.80;2.80;;;23.10;46.20;;;;;;4977416;28;20077;-77
2021/04/23 07:39:36;;;;;;;;;;;23.70;47.40;;;;;;4977845;28;20149;-77
2021/04/23 07:42:02;;;;;;;5.00;3.37;;;24.10;46.50;;;;;;4975328;28;19937;-77
2021/04/23 07:44:28;;;;;;;5.82;2.65;;;23.70;45.70;;;;;;4975905;28;20027;-77
2021/04/23 07:46:54;;;;;;;5.43;1.93;;;24.00;44.60;;;;;;4981534;28;20023;-77
2021/04/23 07:49:20;;;;;;;5.78;2.42;;;24.40;44.30;;;;;;4994865;28;20029;-77
2021/04/23 07:51:45;;;;;;;;;;;24.40;43.30;;;;;;4996108;28;20094;-77
2021/04/23 07:54:11;;;;;;;3.73;2.23;;;23.50;44.40;;;;;;5011694;28;19927;-78
2021/04/23 07:56:37;;;;;;;5.00;2.07;;;24.30;45.60;;;;;;5011346;28;20022;-77
2021/04/23 07:59:04;;;;;;;3.03;1.95;;;25.70;43.90;;;;;;4995029;28;20482;-77
2021/04/23 08:01:31;;;;;;;4.88;2.47;;;25.90;42.70;;;;;;4992894;28;20038;-76
2021/04/23 08:03:57;;;;;;;8.73;3.90;;;27.10;40.60;;;;;;4991254;28;20027;-76
2021/04/23 08:06:22;;;;;;;2.57;2.30;;;26.20;41.00;;;;;;4994259;28;20088;-77
2021/04/23 08:08:48;;;;;;;5.60;3.30;;;24.90;41.70;;;;;;4993898;28;20431;-76
2021/04/23 08:11:14;;;;;;;5.03;2.53;;;24.80;41.60;;;;;;4992963;28;20022;-76
2021/04/23 08:13:39;;;;;;;3.33;1.87;;;24.90;42.10;;;;;;4993510;28;20026;-76
2021/04/23 08:16:05;;;;;;;2.63;2.40;;;25.90;42.80;;;;;;5007908;28;20537;-76
2021/04/23 08:18:35;;;;;;;4.53;2.37;;;26.30;41.20;;;;;;4992569;28;20619;-76
2021/04/23 08:21:01;;;;;;;7.80;2.40;;;27.20;40.20;;;;;;4993280;28;20030;-76
2021/04/23 08:23:27;;;;;;;3.65;2.38;;;25.40;41.50;;;;;;4984215;28;20129;-76
2021/04/23 08:25:56;;;;;;;3.83;2.63;;;24.80;41.80;;;;;;4988190;28;20138;-76
2021/04/23 08:28:23;;;;;;;4.70;2.38;;;26.10;41.80;;;;;;4988593;28;20034;-77
2021/04/23 08:30:48;;;;;;;;;;;26.00;40.00;;;;;;4973581;28;20026;-77
2021/04/23 08:33:17;;;;;;;6.22;2.20;;;26.90;39.10;;;;;;4989352;28;19956;-76
2021/04/23 08:35:42;;;;;;;3.03;2.17;;;27.00;39.80;;;;;;4987445;28;20023;-77
2021/04/23 08:38:08;;;;;;;;;;;26.00;37.90;;;;;;4972643;28;20076;-76
2021/04/23 08:40:34;;;;;;;2.73;2.03;;;24.80;39.70;;;;;;4973771;28;20100;-76
2021/04/23 08:42:59;;;;;;;3.90;2.50;;;25.30;40.20;;;;;;4972009;28;20030;-76
2021/04/23 08:45:25;;;;;;;4.97;3.40;;;26.00;39.30;;;;;;4972792;28;20026;-76
2021/04/23 08:47:51;;;;;;;5.10;2.55;;;26.20;38.50;;;;;;4989308;28;20030;-77
2021/04/23 08:50:19;;;;;;;7.30;2.50;;;;;;;;;;4973613;28;20494;-76
2021/04/23 08:52:46;;;;;;;6.65;2.60;;;26.00;39.10;;;;;;4974349;28;19925;-77
2021/04/23 08:55:16;;;;;;;3.30;2.60;;;26.90;37.20;;;;;;4973751;28;20022;-76
2021/04/23 08:57:41;;;;;;;3.95;2.42;;;27.50;38.80;;;;;;4974045;28;20052;-76
2021/04/23 09:00:10;;;;;;;3.77;2.53;;;27.90;37.10;;;;;;4973890;28;20078;-76
2021/04/23 09:02:36;;;;;;;3.17;2.25;;;27.40;37.60;;;;;;4974509;28;20023;-76
2021/04/23 09:05:04;;;;;;;3.23;2.80;;;27.30;38.00;;;;;;4973414;28;20031;-77
2021/04/23 09:07:29;;;;;;;2.72;2.20;;;26.90;37.80;;;;;;4989037;28;20270;-77
2021/04/23 09:10:11;;;;;;;2.27;2.07;;;26.60;38.90;;;;;;4988589;28;20023;-76
2021/04/23 09:12:38;;;;;;;4.72;2.53;;;26.40;38.00;;;;;;4973782;28;20030;-75
2021/04/23 09:15:20;;;;;;;2.95;2.50;;;28.40;37.70;;;;;;4973376;28;20113;-76
2021/04/23 09:18:03;;;;;;;4.47;2.50;;;26.60;36.80;;;;;;4973907;28;20034;-77
2021/04/23 09:20:29;;;;;;;;;;;28.20;36.20;;;;;;4974034;28;20027;-77
2021/04/23 09:23:05;;;;;;;;;;;27.80;36.80;;;;;;4977571;28;19921;-76
2021/04/23 09:25:41;;;;;;;5.13;3.13;;;28.70;36.40;;;;;;4992605;28;19963;-77
2021/04/23 09:28:07;;;;;;;5.70;3.05;;;28.80;36.00;;;;;;4991675;28;20382;-76
2021/04/23 09:30:33;;;;;;;;;;;28.00;36.70;;;;;;4993166;28;20109;-76
2021/04/23 09:32:58;;;;;;;;;;;27.10;37.20;;;;;;4992082;28;19943;-77
2021/04/23 09:35:24;;;;;;;4.07;3.03;;;26.60;37.90;;;;;;4991003;28;19910;-76
2021/04/23 09:37:55;;;;;;;3.73;2.53;;;26.20;37.80;;;;;;4992923;28;20026;-76
2021/04/23 09:40:40;;;;;;;4.40;2.15;;;26.60;36.80;;;;;;4992892;28;20027;-76
2021/04/23 09:43:06;;;;;;;6.53;2.70;;;27.00;36.50;;;;;;4991185;28;20117;-76
2021/04/23 09:45:33;;;;;;;;;;;27.70;36.60;;;;;;4992676;28;20022;-76
2021/04/23 09:47:59;;;;;;;;;;;28.90;36.40;;;;;;5008058;28;19988;-77
2021/04/23 09:50:33;;;;;;;3.97;2.93;;;27.00;36.10;;;;;;4991638;28;20052;-76
2021/04/23 09:53:00;;;;;;;5.15;3.00;;;27.20;37.20;;;;;;4992731;28;20502;-76
2021/04/23 09:55:28;;;;;;;4.53;3.22;;;27.80;38.70;;;;;;4990865;28;20528;-76
2021/04/23 09:58:02;;;;;;;4.85;3.20;;;28.40;38.20;;;;;;4992822;28;20054;-76
2021/04/23 10:00:31;;;;;;;3.42;2.30;;;28.10;38.00;;;;;;4990997;28;20031;-76
2021/04/23 10:02:58;;;;;;;4.38;3.08;;;27.30;37.30;;;;;;4992577;28;20101;-76
2021/04/23 10:05:56;;;;;;;3.75;3.35;;;28.10;36.70;;;;;;4992081;28;20023;-77
2021/04/23 10:08:25;;;;;;;;;;;27.50;37.10;;;;;;4993969;28;20030;-77
2021/04/23 10:10:53;;;;;;;6.13;3.05;;;26.30;37.30;;;;;;4993099;28;19909;-76
2021/04/23 10:13:28;;;;;;;4.80;3.05;;;26.60;37.40;;;;;;4991996;28;20366;-76
2021/04/23 10:15:53;;;;;;;5.28;3.58;;;27.10;38.20;;;;;;4992123;28;20050;-76
2021/04/23 10:18:19;;;;;;;;;;;27.10;38.60;;;;;;4994685;28;20486;-77
2021/04/23 10:20:48;;;;;;;;;;;26.00;37.70;;;;;;4993741;28;20400;-76
2021/04/23 10:23:15;;;;;;;;;;;25.90;39.00;;;;;;4987519;28;19938;-77
2021/04/23 10:25:41;;;;;;;;;;;25.30;40.30;;;;;;4974161;28;19972;-77
2021/04/23 10:28:09;;;;;;;;;;;25.40;38.80;;;;;;4974859;28;20373;-77
2021/04/23 10:30:36;;;;;;;;;;;25.20;37.80;;;;;;4974164;28;19906;-76
2021/04/23 10:33:03;;;;;;;;;;;26.20;38.10;;;;;;4988892;28;19906;-76
2021/04/23 10:35:29;;;;;;;;;;;25.90;37.40;;;;;;4973031;28;20337;-77
2021/04/23 10:38:04;;;;;;;6.40;3.50;;;26.20;38.00;;;;;;4987932;28;19906;-76
2021/04/23 10:40:31;;;;;;;4.15;3.10;;;26.20;36.90;;;;;;4972665;28;20045;-76
2021/04/23 10:42:59;;;;;;;5.63;3.67;;;25.50;39.20;;;;;;4972633;28;20035;-76
2021/04/23 10:45:39;;;;;;;3.63;3.03;;;25.20;39.70;;;;;;4972363;28;20491;-76
2021/04/23 10:48:17;;;;;;;3.88;2.72;;;25.80;39.90;;;;;;4972975;28;20106;-76
2021/04/23 10:50:51;;;;;;;4.80;3.08;;;26.60;37.90;;;;;;4972694;28;20027;-76
2021/04/23 10:53:26;;;;;;;;;;;25.60;38.10;;;;;;4994888;28;20049;-77
2021/04/23 10:55:52;;;;;;;;;;;25.20;38.50;;;;;;4994865;28;20361;-76
2021/04/23 10:58:24;;;;;;;3.20;2.60;;;25.30;38.30;;;;;;4995279;28;20343;-77
2021/04/23 11:00:50;;;;;;;7.95;3.67;;;24.10;38.40;;;;;;4995771;28;20027;-76
2021/04/23 11:03:22;;;;;;;5.13;2.50;;;24.60;39.60;;;;;;5012174;28;20030;-77
2021/04/23 11:05:49;;;;;;;5.05;3.50;;;26.30;38.80;;;;;;4997001;28;20502;-77
2021/04/23 11:08:15;;;;;;;;;;;27.50;37.60;;;;;;4996595;28;20033;-76
2021/04/23 11:10:59;;;;;;;;;;;27.20;35.50;;;;;;4995395;28;19905;-77
2021/04/23 11:13:25;;;;;;;;;;;26.90;35.90;;;;;;4997051;28;19906;-76
2021/04/23 11:16:09;;;;;;;;;;;27.60;34.10;;;;;;4995132;28;20012;-77
2021/04/23 11:18:34;;;;;;;5.70;3.50;;;27.70;34.20;;;;;;4996521;28;19988;-76
2021/04/23 11:21:19;;;;;;;;;;;27.30;36.60;;;;;;4995593;28;20097;-77
2021/04/23 11:24:03;;;;;;;;;;;28.10;36.70;;;;;;4997848;28;19921;-76
2021/04/23 11:26:46;;;;;;;;;;;26.40;36.90;;;;;;5015496;28;19905;-76
2021/04/23 11:29:13;;;;;;;4.40;2.55;;;26.40;38.20;;;;;;5014993;28;19909;-76
2021/04/23 11:32:04;;;;;;;5.15;3.17;;;27.60;39.20;;;;;;5013617;28;20026;-76
2021/04/23 11:34:34;;;;;;;;;;;28.30;36.10;;;;;;5015002;28;20109;-76
2021/04/23 11:37:13;;;;;;;5.68;3.05;;;27.00;36.00;;;;;;4993946;28;19920;-76
2021/04/23 11:39:46;;;;;;;;;;;26.30;35.90;;;;;;4994203;28;20022;-76
2021/04/23 11:42:16;;;;;;;4.03;2.33;;;24.90;35.80;;;;;;4994980;28;19917;-76
2021/04/23 11:44:44;;;;;;;;;;;25.20;34.70;;;;;;4994995;28;20027;-76
2021/04/23 11:47:09;;;;;;;;;;;26.20;36.30;;;;;;4995284;28;19906;-76
2021/04/23 11:49:35;;;;;;;;;;;26.00;35.50;;;;;;4995389;28;20048;-76
2021/04/23 11:52:02;;;;;;;;;;;24.90;37.10;;;;;;4995201;28;19913;-76
2021/04/23 11:54:28;;;;;;;;;;;24.20;37.10;;;;;;4982287;28;19910;-76
2021/04/23 11:56:54;;;;;;;;;;;23.60;38.30;;;;;;4991285;28;20254;-76
2021/04/23 11:59:19;;;;;;;;;;;22.90;37.50;;;;;;4975690;28;19912;-76
2021/04/23 12:01:45;;;;;;;;;;;22.30;43.70;;;;;;4975650;28;19909;-76
2021/04/23 12:04:10;;;;;;;;;;;21.10;40.20;;;;;;4974105;28;19910;-76
2021/04/23 12:06:36;;;;;;;;;;;19.60;41.40;;;;;;4975906;28;19906;-77
2021/04/23 12:09:14;;;;;;;;;;;19.60;45.30;;;;;;4977963;28;19906;-76
2021/04/23 12:11:39;;;;;;;;;;;19.30;45.10;;;;;;4975510;28;19912;-77
2021/04/23 12:14:04;;;;;;;;;;;19.70;44.80;;;;;;4974858;28;20407;-75
2021/04/23 12:16:30;;;;;;;;;;;19.00;42.40;;;;;;4975402;28;19909;-75
2021/04/23 12:18:56;;;;;;;;;;;18.60;43.50;;;;;;4975434;28;19917;-76
2021/04/23 12:21:22;;;;;;;;;;;18.60;42.40;;;;;;4990479;28;19914;-76
2021/04/23 12:23:49;;;;;;;;;;;18.70;49.10;;;;;;4994776;28;19918;-77
2021/04/23 12:26:15;;;;;;;;;;;19.10;45.40;;;;;;4984739;28;20177;-75
2021/04/23 12:28:48;;;;;;;;;;;18.60;44.10;;;;;;4988448;28;19944;-77
2021/04/23 12:31:17;;;;;;;;;;;18.60;43.00;;;;;;4979591;28;20333;-75
2021/04/23 12:33:53;;;;;;;;;;;19.00;45.20;;;;;;4989933;28;19974;-77
2021/04/23 12:36:20;;;;;;;;;;;18.90;45.20;;;;;;4974001;28;19906;-76
2021/04/23 12:38:50;;;;;;;;;;;19.10;43.50;;;;;;4990049;28;19910;-76
2021/04/23 12:41:18;;;;;;;;;;;18.90;44.00;;;;;;4974999;28;19910;-76
2021/04/23 12:43:43;;;;;;;;;;;19.10;45.30;;;;;;4974786;28;20334;-76
2021/04/23 12:46:18;;;;;;;;;;;18.60;43.60;;;;;;4974481;28;20017;-76
2021/04/23 12:48:44;;;;;;;;;;;19.00;43.60;;;;;;4989647;28;19914;-76
2021/04/23 12:51:09;;;;;;;;;;;19.10;45.00;;;;;;4989748;28;20354;-76
2021/04/23 12:53:35;;;;;;;;;;;19.00;45.50;;;;;;4974701;28;19956;-76
2021/04/23 12:56:01;;;;;;;;;;;19.00;44.10;;;;;;4974461;28;20334;-75
2021/04/23 12:58:26;;;;;;;;;;;19.30;48.10;;;;;;4989730;28;20373;-75
2021/04/23 13:00:52;;;;;;;;;;;19.50;45.30;;;;;;4974544;28;19906;-76
2021/04/23 13:03:21;;;;;;;;;;;19.50;46.60;;;;;;4989387;28;19916;-76
2021/04/23 13:05:47;;;;;;;;;;;19.30;43.60;;;;;;4974390;28;19929;-75
2021/04/23 13:08:19;;;;;;;;;;;18.50;43.80;;;;;;4974764;28;19910;-75
2021/04/23 13:10:49;;;;;;;;;;;18.30;44.70;;;;;;4989475;28;19960;-75
2021/04/23 13:13:16;;;;;;;;;;;18.60;45.20;;;;;;4974916;28;19909;-76
2021/04/23 13:15:46;;;;;;;;;;;18.60;44.80;;;;;;4973283;28;19910;-75
2021/04/23 13:18:15;;;;;;;;;;;19.10;46.40;;;;;;4974142;28;19913;-76
2021/04/23 13:20:48;;;;;;;;;;;19.40;46.10;;;;;;4974190;28;20294;-75
2021/04/23 13:23:13;;;;;;;;;;;19.40;48.10;;;;;;4974488;28;19933;-75
2021/04/23 13:25:46;;;;;;;;;;;19.10;44.40;;;;;;4973713;28;19910;-75
2021/04/23 13:28:14;;;;;;;;;;;19.00;44.50;;;;;;4973967;28;19910;-74
2021/04/23 13:30:39;;;;;;;;;;;18.90;45.30;;;;;;4989026;28;19913;-74
2021/04/23 13:33:25;;;;;;;;;;;18.50;44.50;;;;;;4988656;28;19910;-76
2021/04/23 13:36:11;;;;;;;;;;;19.00;46.10;;;;;;4988055;28;19913;-75
2021/04/23 13:38:42;;;;;;;;;;;19.60;48.70;;;;;;4988447;28;19953;-76
2021/04/23 13:41:23;;;;;;;;;;;19.60;43.70;;;;;;4988810;28;19906;-75
2021/04/23 13:43:58;;;;;;;;;;;19.20;43.30;;;;;;4988243;28;20436;-75
2021/04/23 13:46:43;;;;;;;;;;;19.00;45.80;;;;;;4989115;28;19957;-75
2021/04/23 13:49:13;;;;;;;;;;;18.90;45.10;;;;;;4974339;28;19906;-77
2021/04/23 13:51:41;;;;;;;;;;;18.70;43.80;;;;;;4972362;28;19961;-77
2021/04/23 13:54:14;;;;;;;;;;;18.50;44.10;;;;;;4972111;28;19968;-76